KCOT/COT METAR and TAF weather

Enter ICAO airport designator
Station Type Date Time Source
KCOT METAR 2019/06/18 16:53 UTC NOAA

KCOT 181653Z AUTO 14006KT 10SM FEW036 34/21 A2996 RMK AO2 SLP135 T03390211


Station Type Date Time Source
KCOT Decoded METAR 2019/06/18 16:53 UTC NOAA

COTULLA-LASALLE COUNTY AIRPORT , TX, United States (KCOT) 28-27N 099-13W 140M
Jun 18, 2019 - 12:53 PM EDT / 2019.06.18 1653 UTC
Wind: from the SE (140 degrees) at 7 MPH (6 KT):0
Visibility: 10 mile(s):0
Sky conditions: mostly clear
Temperature: 93.0 F (33.9 C)
Heat index: 99.0 F (37.2 C):1
Dew Point: 70.0 F (21.1 C)
Relative Humidity: 47%
Pressure (altimeter): 29.96 in. Hg (1014 hPa)
ob: KCOT 181653Z AUTO 14006KT 10SM FEW036 34/21 A2996 RMK AO2 SLP135 T03390211
cycle: 17

Station Type Date Time Source
KCOT TAF 2019/06/18 12:35 UTC NOAA

TAF KCOT 181135Z 1812/1912 12006KT P6SM SCT250
FM181500 13008KT P6SM SCT035
FM182000 14013KT P6SM FEW080
FM190100 15008KT P6SM BKN250

Example: see airport list